createdAt,value
2023-02-14T00:01:50.080Z,64.68
2023-02-14T00:04:19.567Z,64.61
2023-02-14T00:06:48.168Z,64.65
2023-02-14T00:09:18.096Z,64.48
2023-02-14T00:11:48.201Z,64.37
2023-02-14T00:14:34.503Z,64.70
2023-02-14T00:17:03.156Z,65.27
2023-02-14T00:19:31.958Z,65.15
2023-02-14T00:22:00.582Z,64.81
2023-02-14T00:24:29.300Z,64.74
2023-02-14T00:26:59.501Z,64.75
2023-02-14T00:29:30.290Z,64.71
2023-02-14T00:31:58.787Z,64.95
2023-02-14T00:34:27.928Z,65.01
2023-02-14T00:36:56.772Z,65.14
2023-02-14T00:39:25.141Z,65.06
2023-02-14T00:41:53.796Z,64.96
2023-02-14T00:44:23.658Z,65.20
2023-02-14T00:46:52.255Z,65.05
2023-02-14T00:49:20.732Z,64.92
2023-02-14T00:51:49.183Z,65.00
2023-02-14T00:54:17.458Z,64.83
2023-02-14T00:56:45.821Z,64.89
2023-02-14T00:59:14.255Z,64.96
2023-02-14T01:01:44.201Z,65.03
2023-02-14T01:04:12.597Z,65.06
2023-02-14T01:06:41.034Z,65.30
2023-02-14T01:09:09.447Z,65.39
2023-02-14T01:11:37.754Z,65.35
2023-02-14T01:14:06.107Z,65.21
2023-02-14T01:16:34.781Z,65.28
2023-02-14T01:19:04.868Z,65.18
2023-02-14T01:21:34.955Z,65.34
2023-02-14T01:24:05.666Z,65.09
2023-02-14T01:26:34.411Z,65.26
2023-02-14T01:29:03.274Z,64.94
2023-02-14T01:31:33.905Z,64.78
2023-02-14T01:34:03.979Z,64.79
2023-02-14T01:36:34.469Z,64.67
2023-02-14T01:39:05.838Z,64.77
2023-02-14T01:41:36.819Z,64.62
2023-02-14T01:44:07.404Z,64.63
2023-02-14T01:46:38.306Z,64.86
2023-02-14T01:49:13.834Z,64.78
2023-02-14T01:51:50.305Z,64.65
2023-02-14T01:54:20.854Z,64.74
2023-02-14T01:56:53.524Z,64.82
2023-02-14T01:59:26.520Z,64.45
2023-02-14T02:01:55.826Z,64.31
2023-02-14T02:04:30.398Z,64.52
2023-02-14T02:07:02.513Z,64.62
2023-02-14T02:09:36.056Z,64.68
2023-02-14T02:12:05.223Z,64.46
2023-02-14T02:14:34.105Z,64.72
2023-02-14T02:17:24.610Z,64.74
2023-02-14T02:20:25.906Z,64.73
2023-02-14T02:23:34.975Z,64.47
2023-02-14T02:26:36.280Z,64.49
2023-02-14T02:29:29.396Z,64.66
2023-02-14T02:32:29.710Z,64.78
2023-02-14T02:35:22.450Z,64.61
2023-02-14T02:38:07.796Z,64.53
2023-02-14T02:40:48.998Z,64.68
2023-02-14T02:43:32.546Z,64.67
2023-02-14T02:46:22.901Z,64.38
2023-02-14T02:49:07.431Z,64.56
2023-02-14T02:51:58.730Z,64.50
2023-02-14T02:54:34.905Z,64.62
2023-02-14T02:57:07.410Z,64.79
2023-02-14T02:59:41.817Z,64.68
2023-02-14T03:02:14.824Z,64.48
2023-02-14T03:04:55.218Z,64.71
2023-02-14T03:07:39.509Z,64.62
2023-02-14T03:10:13.590Z,64.50
2023-02-14T03:13:21.649Z,64.59
2023-02-14T03:16:00.245Z,64.62
2023-02-14T03:18:45.011Z,64.82
2023-02-14T03:21:25.754Z,64.79
2023-02-14T03:23:59.380Z,64.65
2023-02-14T03:26:29.841Z,64.97
2023-02-14T03:29:03.987Z,64.95
2023-02-14T03:31:35.908Z,64.87
2023-02-14T03:34:11.225Z,64.64
2023-02-14T03:36:44.454Z,64.42
2023-02-14T03:39:20.372Z,64.74
2023-02-14T03:41:54.139Z,64.98
2023-02-14T03:44:28.521Z,64.72
2023-02-14T03:47:02.968Z,64.85
2023-02-14T03:49:34.800Z,64.90
2023-02-14T03:52:05.648Z,64.94
2023-02-14T03:54:37.116Z,64.75
2023-02-14T03:57:14.027Z,64.70
2023-02-14T03:59:43.610Z,64.59
2023-02-14T04:02:16.660Z,64.52
2023-02-14T04:04:47.338Z,64.53
2023-02-14T04:07:18.527Z,64.73
2023-02-14T04:09:48.884Z,64.80
2023-02-14T04:12:26.543Z,64.85
2023-02-14T04:15:00.791Z,64.61
2023-02-14T04:17:42.924Z,64.71
2023-02-14T04:20:11.958Z,64.60
2023-02-14T04:22:40.305Z,64.80
2023-02-14T04:25:10.188Z,64.86
2023-02-14T04:27:38.640Z,64.80
2023-02-14T04:30:08.856Z,64.64
2023-02-14T04:32:37.498Z,64.62
2023-02-14T04:35:06.619Z,64.72
2023-02-14T04:37:35.258Z,64.69
2023-02-14T04:40:04.157Z,64.75
2023-02-14T04:42:33.906Z,64.87
2023-02-14T04:45:04.207Z,64.65
2023-02-14T04:47:33.151Z,64.56
2023-02-14T04:50:01.728Z,64.82
2023-02-14T04:52:30.207Z,64.88
2023-02-14T04:54:58.548Z,64.88
2023-02-14T04:57:27.225Z,64.79
2023-02-14T04:59:57.056Z,64.88
2023-02-14T05:02:25.798Z,64.86
2023-02-14T05:04:54.153Z,64.67
2023-02-14T05:07:22.507Z,64.79
2023-02-14T05:09:51.114Z,64.80
2023-02-14T05:12:19.525Z,65.16
2023-02-14T05:14:48.322Z,65.00
2023-02-14T05:17:18.170Z,65.09
2023-02-14T05:19:46.635Z,65.20
2023-02-14T05:22:16.885Z,65.07
2023-02-14T05:24:46.815Z,65.42
2023-02-14T05:27:15.310Z,65.02
2023-02-14T05:29:43.736Z,65.19
2023-02-14T05:32:12.168Z,65.20
2023-02-14T05:34:41.944Z,64.85
2023-02-14T05:37:10.620Z,64.87
2023-02-14T05:39:39.018Z,64.72
2023-02-14T05:44:35.639Z,64.68
2023-02-14T05:47:04.106Z,64.73
2023-02-14T05:49:32.435Z,64.87
2023-02-14T05:52:02.521Z,65.25
2023-02-14T05:54:30.867Z,64.69
2023-02-14T05:56:59.767Z,64.54
2023-02-14T05:59:28.159Z,64.81
2023-02-14T06:01:56.696Z,64.71
2023-02-14T06:04:25.147Z,64.58
2023-02-14T06:06:53.727Z,64.69
2023-02-14T06:09:23.936Z,64.79
2023-02-14T06:11:54.950Z,64.85
2023-02-14T06:14:23.693Z,64.68
2023-02-14T06:16:52.186Z,64.74
2023-02-14T06:19:20.616Z,64.89
2023-02-14T06:21:49.031Z,64.76
2023-02-14T06:24:17.529Z,64.88
2023-02-14T06:26:47.308Z,64.61
2023-02-14T06:29:18.175Z,64.39
2023-02-14T06:31:47.049Z,64.72
2023-02-14T06:34:16.244Z,64.82
2023-02-14T06:36:44.753Z,65.09
2023-02-14T06:39:13.050Z,65.16
2023-02-14T06:41:41.435Z,65.01
2023-02-14T06:44:11.401Z,65.10
2023-02-14T06:46:39.734Z,65.28
2023-02-14T06:49:08.044Z,65.53
2023-02-14T06:51:36.449Z,65.46
2023-02-14T06:54:05.147Z,65.54
2023-02-14T06:56:33.702Z,65.24
2023-02-14T06:59:01.977Z,65.18
2023-02-14T07:01:31.859Z,65.03
2023-02-14T07:04:00.192Z,65.10
2023-02-14T07:06:28.605Z,65.28
2023-02-14T07:08:56.923Z,65.05
2023-02-14T07:11:25.989Z,65.25
2023-02-14T07:13:54.336Z,65.34
2023-02-14T07:16:22.671Z,65.21
2023-02-14T07:18:52.524Z,65.41
2023-02-14T07:21:20.786Z,65.22
2023-02-14T07:23:50.261Z,65.29
2023-02-14T07:26:19.280Z,65.24
2023-02-14T07:28:49.203Z,65.58
2023-02-14T07:31:18.642Z,65.48
2023-02-14T07:33:47.085Z,65.28
2023-02-14T07:36:17.007Z,65.30
2023-02-14T07:38:45.461Z,65.45
2023-02-14T07:41:13.799Z,65.55
2023-02-14T07:43:42.120Z,65.58
2023-02-14T07:46:10.729Z,65.59
2023-02-14T07:48:39.850Z,65.48
2023-02-14T07:51:08.330Z,65.65
2023-02-14T07:53:38.746Z,65.48
2023-02-14T07:56:07.540Z,65.75
2023-02-14T07:58:36.017Z,65.76
2023-02-14T08:01:04.444Z,65.67
2023-02-14T08:03:32.984Z,65.66
2023-02-14T08:06:01.708Z,65.84
2023-02-14T08:08:32.754Z,65.83
2023-02-14T08:11:02.937Z,65.64
2023-02-14T08:13:31.589Z,65.84
2023-02-14T08:16:06.452Z,65.90
2023-02-14T08:18:37.720Z,65.91
2023-02-14T08:21:07.534Z,66.14
2023-02-14T08:23:36.301Z,66.11
2023-02-14T08:26:06.564Z,66.03
2023-02-14T08:28:35.390Z,65.92
2023-02-14T08:31:04.741Z,65.98
2023-02-14T08:33:33.497Z,66.12
2023-02-14T08:36:01.828Z,66.12
2023-02-14T08:38:30.383Z,66.20
2023-02-14T08:41:05.113Z,66.14
2023-02-14T08:43:36.555Z,66.22
2023-02-14T08:46:05.171Z,66.24
2023-02-14T08:48:33.614Z,66.15
2023-02-14T08:51:06.712Z,66.39
2023-02-14T08:53:35.112Z,66.57
2023-02-14T08:56:08.122Z,66.24
2023-02-14T08:58:38.599Z,66.14
2023-02-14T09:01:10.790Z,66.23
2023-02-14T09:03:39.718Z,66.15
2023-02-14T09:06:09.674Z,66.41
2023-02-14T09:08:38.448Z,65.96
2023-02-14T09:11:10.627Z,66.18
2023-02-14T09:13:40.365Z,66.21
2023-02-14T09:16:10.598Z,66.07
2023-02-14T09:18:39.148Z,66.03
2023-02-14T09:21:10.454Z,66.41
2023-02-14T09:23:39.028Z,66.57
2023-02-14T09:26:09.432Z,66.39
2023-02-14T09:28:37.902Z,66.92
2023-02-14T09:31:13.067Z,66.70
2023-02-14T09:33:42.107Z,66.73
2023-02-14T09:36:14.063Z,67.13
2023-02-14T09:38:42.575Z,66.95
2023-02-14T09:41:27.418Z,66.83
2023-02-14T09:44:01.251Z,67.25
2023-02-14T09:46:32.170Z,67.26
2023-02-14T09:49:01.346Z,67.52
2023-02-14T09:51:32.652Z,67.17
2023-02-14T09:54:08.497Z,66.98
2023-02-14T09:56:51.248Z,66.93
2023-02-14T09:59:28.801Z,67.02
2023-02-14T10:02:11.020Z,67.09
2023-02-14T10:04:43.847Z,66.89
2023-02-14T10:07:20.177Z,66.56
2023-02-14T10:09:57.664Z,65.98
2023-02-14T10:12:32.355Z,65.15
2023-02-14T10:15:06.307Z,64.23
2023-02-14T10:17:47.225Z,64.04
2023-02-14T10:20:21.733Z,64.03
2023-02-14T10:22:58.544Z,63.27
2023-02-14T10:25:31.459Z,62.91
2023-02-14T10:28:02.670Z,62.62
2023-02-14T10:30:40.343Z,62.30
2023-02-14T10:33:18.035Z,61.63
2023-02-14T10:35:50.741Z,61.07
2023-02-14T10:38:40.921Z,60.87
2023-02-14T10:41:22.677Z,61.07
2023-02-14T10:44:04.760Z,60.74
2023-02-14T10:46:42.199Z,60.44
2023-02-14T10:49:27.016Z,60.43
2023-02-14T10:52:01.712Z,60.22
2023-02-14T10:54:39.027Z,59.64
2023-02-14T10:57:14.309Z,58.90
2023-02-14T10:59:52.013Z,57.85
2023-02-14T11:02:25.842Z,56.98
2023-02-14T11:04:56.774Z,56.60
2023-02-14T11:07:25.223Z,56.56
2023-02-14T11:09:53.526Z,56.10
2023-02-14T11:12:37.590Z,55.44
2023-02-14T11:15:27.727Z,54.93
2023-02-14T11:18:23.663Z,55.28
2023-02-14T11:21:06.230Z,54.89
2023-02-14T11:23:36.302Z,55.45
2023-02-14T11:26:06.969Z,54.88
2023-02-14T11:28:36.865Z,54.51
2023-02-14T11:31:05.735Z,53.88
2023-02-14T11:33:38.953Z,53.05
2023-02-14T11:36:18.954Z,52.54
2023-02-14T11:38:56.099Z,52.69
2023-02-14T11:41:25.191Z,52.66
2023-02-14T11:44:10.948Z,52.03
2023-02-14T11:46:52.384Z,51.56
2023-02-14T11:49:28.944Z,50.74
2023-02-14T11:52:00.218Z,49.90
2023-02-14T11:54:33.292Z,50.25
2023-02-14T11:57:07.669Z,50.33
2023-02-14T11:59:39.892Z,50.14
2023-02-14T12:02:20.276Z,50.22
2023-02-14T12:04:50.686Z,50.04
2023-02-14T12:07:24.337Z,49.80
2023-02-14T12:10:06.993Z,49.82
2023-02-14T12:12:37.501Z,48.75
2023-02-14T12:15:35.579Z,47.91
2023-02-14T12:18:26.563Z,47.61
2023-02-14T12:20:59.731Z,47.60
2023-02-14T12:23:40.525Z,47.66
2023-02-14T12:26:19.200Z,47.91
2023-02-14T12:28:51.610Z,47.93
2023-02-14T12:31:21.079Z,47.92
2023-02-14T12:33:50.600Z,47.81
2023-02-14T12:36:34.299Z,47.77
2023-02-14T12:39:10.513Z,47.26
2023-02-14T12:41:46.054Z,47.57
2023-02-14T12:44:22.746Z,47.95
2023-02-14T12:47:16.545Z,48.17
2023-02-14T12:50:18.944Z,48.16
2023-02-14T12:53:07.711Z,48.08
2023-02-14T12:55:50.062Z,47.62
2023-02-14T12:58:31.512Z,48.04
2023-02-14T13:01:16.332Z,48.04
2023-02-14T13:04:17.305Z,47.16
2023-02-14T13:06:52.415Z,47.46
2023-02-14T13:09:31.540Z,47.44
2023-02-14T13:12:17.890Z,47.51
2023-02-14T13:15:01.882Z,47.84
2023-02-14T13:17:36.103Z,47.71
2023-02-14T13:20:19.964Z,47.47
2023-02-14T13:22:50.403Z,47.71
2023-02-14T13:25:31.751Z,48.15
2023-02-14T13:28:05.760Z,48.00
2023-02-14T13:30:37.069Z,48.11
2023-02-14T13:33:09.981Z,48.05
2023-02-14T13:35:39.328Z,48.04
2023-02-14T13:38:14.192Z,47.97
2023-02-14T13:40:43.359Z,48.15
2023-02-14T13:43:13.173Z,48.44
2023-02-14T13:46:05.482Z,48.43
2023-02-14T13:48:34.442Z,48.65
2023-02-14T13:51:04.329Z,48.59
2023-02-14T13:53:38.746Z,48.70
2023-02-14T13:56:34.967Z,48.74
2023-02-14T13:59:07.764Z,48.92
2023-02-14T14:01:39.671Z,49.09
2023-02-14T14:04:23.916Z,49.23
2023-02-14T14:07:30.251Z,49.32
2023-02-14T14:10:06.784Z,49.56
2023-02-14T14:12:45.162Z,49.70
2023-02-14T14:15:23.867Z,49.65
2023-02-14T14:18:36.988Z,49.89
2023-02-14T14:21:17.118Z,50.15
2023-02-14T14:23:45.714Z,50.18
2023-02-14T14:26:38.072Z,50.29
2023-02-14T14:29:13.805Z,50.36
2023-02-14T14:31:44.241Z,50.47
2023-02-14T14:34:19.468Z,50.61
2023-02-14T14:36:48.182Z,50.64
2023-02-14T14:39:28.847Z,50.76
2023-02-14T14:41:58.263Z,50.82
2023-02-14T14:44:27.181Z,50.85
2023-02-14T14:47:00.738Z,50.93
2023-02-14T14:49:29.786Z,51.00
2023-02-14T14:51:59.442Z,50.82
2023-02-14T14:54:30.184Z,51.27
2023-02-14T14:57:02.679Z,51.27
2023-02-14T14:59:35.312Z,51.45
2023-02-14T15:02:09.020Z,51.86
2023-02-14T15:04:37.158Z,52.19
2023-02-14T15:07:21.258Z,52.01
2023-02-14T15:09:49.741Z,52.48
2023-02-14T15:12:38.049Z,52.37
2023-02-14T15:15:10.234Z,52.49
2023-02-14T15:17:42.794Z,52.62
2023-02-14T15:20:17.971Z,52.69
2023-02-14T15:22:48.586Z,52.81
2023-02-14T15:25:20.955Z,52.97
2023-02-14T15:27:49.982Z,53.22
2023-02-14T15:30:29.233Z,53.51
2023-02-14T15:33:00.040Z,53.69
2023-02-14T15:35:32.171Z,53.77
2023-02-14T15:38:04.299Z,53.84
2023-02-14T15:40:35.205Z,54.01
2023-02-14T15:43:16.030Z,54.28
2023-02-14T15:45:47.539Z,54.29
2023-02-14T15:48:21.120Z,54.51
2023-02-14T15:50:52.727Z,54.58
2023-02-14T15:53:34.262Z,54.60
2023-02-14T15:56:09.294Z,54.64
2023-02-14T15:58:40.440Z,54.72
2023-02-14T16:01:09.490Z,54.95
2023-02-14T16:03:44.054Z,54.83
2023-02-14T16:06:30.652Z,55.11
2023-02-14T16:08:59.333Z,55.11
2023-02-14T16:11:33.063Z,55.14
2023-02-14T16:14:20.698Z,55.86
2023-02-14T16:17:00.091Z,55.51
2023-02-14T16:19:41.677Z,55.56
2023-02-14T16:22:11.098Z,55.39
2023-02-14T16:24:40.493Z,55.48
2023-02-14T16:27:09.173Z,55.65
2023-02-14T16:29:38.114Z,55.70
2023-02-14T16:32:16.496Z,55.93
2023-02-14T16:34:48.365Z,56.20
2023-02-14T16:37:22.728Z,56.47
2023-02-14T16:39:52.732Z,56.72
2023-02-14T16:42:21.427Z,56.67
2023-02-14T16:44:50.405Z,57.02
2023-02-14T16:47:20.970Z,56.80
2023-02-14T16:49:53.187Z,57.07
2023-02-14T16:52:24.744Z,56.79
2023-02-14T16:54:53.617Z,56.62
2023-02-14T16:57:27.660Z,56.92
2023-02-14T16:59:57.743Z,57.13
2023-02-14T17:02:28.518Z,56.88
2023-02-14T17:04:58.660Z,56.77
2023-02-14T17:07:28.280Z,56.78
2023-02-14T17:10:01.466Z,56.89
2023-02-14T17:12:34.547Z,56.99
2023-02-14T17:15:07.300Z,57.02
2023-02-14T17:17:38.311Z,57.16
2023-02-14T17:20:09.959Z,57.40
2023-02-14T17:22:38.933Z,57.38
2023-02-14T17:25:08.030Z,57.59
2023-02-14T17:27:36.501Z,57.60
2023-02-14T17:30:05.821Z,57.58
2023-02-14T17:32:36.397Z,57.43
2023-02-14T17:35:06.172Z,57.55
2023-02-14T17:37:36.768Z,57.73
2023-02-14T17:40:06.341Z,57.76
2023-02-14T17:42:35.522Z,57.92
2023-02-14T17:45:06.365Z,57.93
2023-02-14T17:47:35.221Z,58.32
2023-02-14T17:50:04.357Z,58.23
2023-02-14T17:52:32.660Z,58.50
2023-02-14T17:55:02.473Z,58.38
2023-02-14T17:57:31.004Z,58.45
2023-02-14T17:59:59.847Z,58.73
2023-02-14T18:02:28.727Z,58.53
2023-02-14T18:04:57.898Z,58.80
2023-02-14T18:07:26.439Z,58.94
2023-02-14T18:09:54.740Z,58.91
2023-02-14T18:12:24.535Z,58.84
2023-02-14T18:14:56.149Z,58.98
2023-02-14T18:17:24.936Z,59.16
2023-02-14T18:19:53.268Z,58.96
2023-02-14T18:22:21.796Z,59.19
2023-02-14T18:24:50.206Z,59.15
2023-02-14T18:27:18.618Z,59.37
2023-02-14T18:29:49.096Z,59.06
2023-02-14T18:32:17.570Z,58.97
2023-02-14T18:34:46.033Z,59.24
2023-02-14T18:37:14.817Z,59.43
2023-02-14T18:39:43.210Z,59.22
2023-02-14T18:42:11.937Z,59.16
2023-02-14T18:44:40.281Z,59.04
2023-02-14T18:47:10.414Z,59.29
2023-02-14T18:49:38.679Z,59.06
2023-02-14T18:52:07.572Z,59.31
2023-02-14T18:54:37.300Z,59.26
2023-02-14T18:57:06.043Z,59.46
2023-02-14T18:59:34.356Z,59.11
2023-02-14T19:02:02.970Z,59.15
2023-02-14T19:04:32.653Z,59.05
2023-02-14T19:07:01.086Z,59.27
2023-02-14T19:09:29.641Z,59.59
2023-02-14T19:12:00.239Z,59.61
2023-02-14T19:14:28.749Z,59.72
2023-02-14T19:16:57.128Z,59.75
2023-02-14T19:19:26.961Z,59.81
2023-02-14T19:22:00.079Z,60.16
2023-02-14T19:24:29.352Z,59.92
2023-02-14T19:26:57.875Z,60.11
2023-02-14T19:29:26.252Z,60.39
2023-02-14T19:31:56.124Z,60.25
2023-02-14T19:34:29.358Z,60.60
2023-02-14T19:37:00.776Z,60.59
2023-02-14T19:39:30.799Z,60.41
2023-02-14T19:42:00.481Z,60.54
2023-02-14T19:44:29.536Z,60.43
2023-02-14T19:47:00.200Z,60.67
2023-02-14T19:49:30.151Z,60.79
2023-02-14T19:52:00.257Z,60.84
2023-02-14T19:54:29.973Z,60.66
2023-02-14T19:56:58.385Z,61.02
2023-02-14T19:59:28.027Z,60.90
2023-02-14T20:01:58.555Z,60.89
2023-02-14T20:04:29.127Z,61.04
2023-02-14T20:06:59.425Z,61.25
2023-02-14T20:09:29.912Z,61.37
2023-02-14T20:12:01.520Z,61.62
2023-02-14T20:14:43.667Z,61.34
2023-02-14T20:17:18.746Z,61.09
2023-02-14T20:19:47.739Z,60.97
2023-02-14T20:22:17.851Z,60.84
2023-02-14T20:24:46.403Z,60.65
2023-02-14T20:27:15.720Z,60.30
2023-02-14T20:29:45.501Z,60.16
2023-02-14T20:32:17.177Z,60.24
2023-02-14T20:34:46.668Z,60.17
2023-02-14T20:37:16.497Z,59.88
2023-02-14T20:39:44.890Z,60.32
2023-02-14T20:42:13.939Z,60.29
2023-02-14T20:44:42.661Z,60.22
2023-02-14T20:47:11.820Z,60.09
2023-02-14T20:49:44.858Z,60.40
2023-02-14T20:52:14.095Z,60.55
2023-02-14T20:54:44.438Z,60.65
2023-02-14T20:57:14.084Z,60.38
2023-02-14T20:59:44.968Z,60.66
2023-02-14T21:02:16.299Z,60.46
2023-02-14T21:04:45.656Z,60.06
2023-02-14T21:07:15.782Z,60.56
2023-02-14T21:09:45.682Z,60.87
2023-02-14T21:12:15.072Z,60.75
2023-02-14T21:14:43.627Z,61.05
2023-02-14T21:17:12.341Z,60.81
2023-02-14T21:19:41.228Z,60.65
2023-02-14T21:22:10.267Z,60.72
2023-02-14T21:24:39.060Z,60.79
2023-02-14T21:27:09.137Z,60.67
2023-02-14T21:29:38.200Z,60.89
2023-02-14T21:32:06.832Z,60.88
2023-02-14T21:34:35.643Z,60.85
2023-02-14T21:37:04.163Z,61.00
2023-02-14T21:39:35.837Z,61.33
2023-02-14T21:42:04.269Z,60.88
2023-02-14T21:44:51.517Z,60.84
2023-02-14T21:47:21.190Z,61.09
2023-02-14T21:50:06.910Z,61.00
2023-02-14T21:52:35.379Z,60.93
2023-02-14T21:55:03.736Z,61.34
2023-02-14T21:57:32.302Z,61.11
2023-02-14T22:00:02.088Z,61.05
2023-02-14T22:02:30.807Z,61.23
2023-02-14T22:04:59.227Z,61.30
2023-02-14T22:07:29.312Z,61.33
2023-02-14T22:09:57.679Z,61.14
2023-02-14T22:12:26.110Z,60.75
2023-02-14T22:14:54.385Z,61.13
2023-02-14T22:17:24.503Z,60.98
2023-02-14T22:19:53.044Z,60.85
2023-02-14T22:22:21.657Z,60.57
2023-02-14T22:24:50.376Z,60.54
2023-02-14T22:27:18.845Z,60.57
2023-02-14T22:29:47.204Z,60.91
2023-02-14T22:32:15.924Z,60.69
2023-02-14T22:34:46.104Z,60.23
2023-02-14T22:37:14.609Z,60.47
2023-02-14T22:39:43.238Z,60.40
2023-02-14T22:42:11.555Z,60.07
2023-02-14T22:44:39.831Z,60.15
2023-02-14T22:47:08.236Z,60.09
2023-02-14T22:49:36.533Z,59.81
2023-02-14T22:52:06.615Z,59.73
2023-02-14T22:54:35.260Z,59.48
2023-02-14T22:57:03.713Z,59.57
2023-02-14T22:59:33.504Z,59.25
2023-02-14T23:02:02.670Z,59.40
2023-02-14T23:04:31.544Z,59.29
2023-02-14T23:07:00.405Z,59.30
2023-02-14T23:09:30.325Z,59.55
2023-02-14T23:11:58.871Z,59.34
2023-02-14T23:14:44.366Z,59.47
2023-02-14T23:17:33.519Z,59.25
2023-02-14T23:20:30.465Z,59.35
2023-02-14T23:22:58.831Z,59.44
2023-02-14T23:25:28.727Z,59.28
2023-02-14T23:27:57.495Z,59.40
2023-02-14T23:30:25.917Z,59.46
2023-02-14T23:32:54.948Z,59.21
2023-02-14T23:35:23.295Z,59.14
2023-02-14T23:37:51.628Z,59.05
2023-02-14T23:40:20.631Z,58.77
2023-02-14T23:42:50.699Z,58.59
2023-02-14T23:45:37.489Z,58.57
2023-02-14T23:48:06.540Z,58.60
2023-02-14T23:50:34.898Z,58.40
2023-02-14T23:53:03.339Z,58.36
2023-02-14T23:55:31.950Z,58.33
2023-02-14T23:58:02.022Z,58.25
